Hartland, MI (48353)

1:21 PM EDT on August 31, 2016 (GMT -0400)
Dunham Lake | | Change Station

Elev 997 ft 42.65 °N, 83.68 °W | Updated 37 seconds ago

Overcast
Overcast
72.9 °F
Feels Like 73 °F
N
0.0
Wind Variable Wind from North
Gusts 0.0 mph

Today
High -- | Low -- °F
--% Chance of Precip.
Yesterday
High -- | Low -- °F
Precip. -- in
Pressure 30.03 in
Visibility 10.0 miles
Clouds Mostly Cloudy 2200 ft
Mostly Cloudy 3100 ft
Overcast 3900 ft
Heat Index 73 °F
Dew Point 66 °F
Humidity 80%
Rainfall 0.23 in
Snow Depth Not available.
6:59 AM 8:09 PM
Waning Crescent, 0% visible
METAR KOZW 311714Z AUTO 35006KT 10SM BKN022 BKN031 OVC039 23/18 A3003 RMK AO2 T02300181
Pressure 30.03 in
Visibility 10.0 miles
Clouds Mostly Cloudy 2200 ft
Mostly Cloudy 3100 ft
Overcast 3900 ft
Heat Index 73 °F
Dew Point 66 °F
Humidity 80%
Rainfall 0.23 in
Snow Depth Not available.
6:59 AM 8:09 PM
Waning Crescent, 0% visible
METAR KOZW 311714Z AUTO 35006KT 10SM BKN022 BKN031 OVC039 23/18 A3003 RMK AO2 T02300181

10-Day Weather Forecast

Almanac

Astronomy

Aug. 31, 2016 Rise Set
Actual Time
Civil Twilight
Nautical Twilight
Astronomical Twilight
Moon
Length of Visible Light
Length of Day
Tomorrow will be .
, % of the Moon is Illuminated

Today's Extremes

State Highs State Lows

Community

WunderPhotos

Upload Photos

1,936,137 photos uploaded!

WunderBlog® & News

Nearby

Air Quality

  Air Quality AQ Index Pollutant
Not available.

Snow Depth

Station Depth Elevation

Earthquake Activity

City Distance Mag. Time & Date
Minimum magnitude displayed is 2.5.

Coastal Water Temperatures

Place Temperature

Stations

Nearby Weather Stations

Station Location Temp. Windchill Dew Point Humidity Wind Precip. Elev Updated Type
                   

Watches & Warnings

There are currently no watches in effect.